This is the latest recevied weather packets stored in our database for station/object KD4WXI. If no packets are shown the sender has not sent any weather packets the latest 10 day(s).
| Time | Temp. | Humidity | Pressure | Rain* | Wind** | Luminosity | Snow |
|---|---|---|---|---|---|---|---|
| 1778006829 | 26.11° C | 35% | 1015.8 hPa | 0 mm | - | 427 W/m² | - |
| 1778006527 | 26.11° C | 34% | 1015.7 hPa | 0 mm | - | 758 W/m² | - |
| 1778006223 | 25.56° C | 37% | 1016 hPa | 0 mm | - | 635 W/m² | - |
| 1778005921 | 25.56° C | 36% | 1016.1 hPa | 0 mm | - | 611 W/m² | - |
| 1778005616 | 26.11° C | 36% | 1016.2 hPa | 0 mm | - | 588 W/m² | - |
| 1778005314 | 26.67° C | 37% | 1016.1 hPa | 0 mm | - | 671 W/m² | - |
| 1778005010 | 26.67° C | 36% | 1016.4 hPa | 0 mm | - | 784 W/m² | - |
| 1778004708 | 25.56° C | 38% | 1016.6 hPa | 0 mm | - | 805 W/m² | - |
| 1778004403 | 25.56° C | 38% | 1016.4 hPa | 0 mm | - | 515 W/m² | - |
| 1778004101 | 26.67° C | 36% | 1016.6 hPa | 0 mm | - | 519 W/m² | - |
| 1778003797 | 26.11° C | 37% | 1016.6 hPa | 0 mm | - | 836 W/m² | - |
| 1778003493 | 25.56° C | 40% | 1016.4 hPa | 0 mm | - | 549 W/m² | - |
| 1778003190 | 26.67° C | 36% | 1016.4 hPa | 0 mm | - | 537 W/m² | - |
| 1778002886 | 26.67° C | 37% | 1016.5 hPa | 0 mm | - | 784 W/m² | - |
| 1778002583 | 27.22° C | 35% | 1016.2 hPa | 0 mm | - | 764 W/m² | - |
| 1778002280 | 26.11° C | 38% | 1016.3 hPa | 0 mm | - | 749 W/m² | - |
| 1778001978 | 25.56° C | 39% | 1016.5 hPa | 0 mm | - | 781 W/m² | - |
| 1778001674 | 26.11° C | 40% | 1016.4 hPa | 0 mm | - | 784 W/m² | - |
| 1778001369 | 26.11° C | 38% | 1016.5 hPa | 0 mm | - | 772 W/m² | - |
| 1778001066 | 26.11° C | 40% | 1016.4 hPa | 0 mm | - | 775 W/m² | - |
| 1778000763 | 25.56° C | 41% | 1016.5 hPa | 0 mm | - | 730 W/m² | - |
| 1778000459 | 26.11° C | 40% | 1016.8 hPa | 0 mm | - | 714 W/m² | - |
| 1778000154 | 26.11° C | 40% | 1016.6 hPa | 0 mm | - | 782 W/m² | - |
| 1777999850 | 25.56° C | 43% | 1016.9 hPa | 0 mm | - | 773 W/m² | - |
| 1777999546 | 25.56° C | 42% | 1016.9 hPa | 0 mm | - | 668 W/m² | - |
* Rain latest hour (hover to see other rain measurements)
** Current wind speed in m/s (hover to see current wind gust speed)